Time;durP1;ratioP1;P1;durP2;ratioP2;P2;SDS_P1;SDS_P2;PMS_P1;PMS_P2;Temp;Humidity;BMP_temperature;BMP_pressure;BME280_temperature;BME280_humidity;BME280_pressure;Samples;Min_cycle;Max_cycle;Signal;HPM_P1;HPM_P2
2021/10/09 00:02:15;;;;;;;4.07;2.25;;;256.60;2252.80;;;;;;5069257;28;20025;-73
2021/10/09 00:04:42;;;;;;;4.20;2.40;;;256.50;2252.80;;;;;;5065576;28;20071;-73
2021/10/09 00:07:08;;;;;;;3.67;2.63;;;256.40;2252.80;;;;;;5064926;28;20024;-73
2021/10/09 00:09:34;;;;;;;6.28;2.83;;;256.50;2252.80;;;;;;5066931;28;20021;-73
2021/10/09 00:11:59;;;;;;;7.90;2.50;;;256.50;2252.80;;;;;;5052535;28;20025;-73
2021/10/09 00:14:25;;;;;;;5.10;2.42;;;256.40;2252.80;;;;;;5070209;28;20051;-74
2021/10/09 00:16:51;;;;;;;4.32;2.85;;;256.40;2252.80;;;;;;5072428;28;20091;-74
2021/10/09 00:19:17;;;;;;;5.82;2.70;;;256.50;2252.80;;;;;;5073791;28;20086;-75
2021/10/09 00:21:44;;;;;;;4.43;2.67;;;256.40;2252.80;;;;;;5053968;28;20019;-74
2021/10/09 00:24:14;;;;;;;4.32;2.50;;;256.50;2252.80;;;;;;5057340;28;20441;-74
2021/10/09 00:26:41;;;;;;;5.90;2.88;;;256.40;2252.80;;;;;;5071396;28;20032;-74
2021/10/09 00:29:07;;;;;;;5.68;3.05;;;256.40;2252.80;;;;;;5070225;28;20108;-75
2021/10/09 00:31:33;;;;;;;7.55;2.75;;;256.40;2252.80;;;;;;5072636;28;20502;-75
2021/10/09 00:33:59;;;;;;;4.57;2.35;;;256.40;2252.80;;;;;;5072158;28;20025;-74
2021/10/09 00:36:25;;;;;;;4.38;3.05;;;256.30;2252.80;;;;;;5071278;28;20767;-74
2021/10/09 00:38:51;;;;;;;9.15;3.03;;;256.30;2252.80;;;;;;5071417;28;20062;-74
2021/10/09 00:41:17;;;;;;;3.65;2.22;;;256.60;2252.80;;;;;;5070406;28;20064;-75
2021/10/09 00:43:42;;;;;;;6.03;3.65;;;256.40;2252.80;;;;;;5070356;28;20020;-74
2021/10/09 00:46:09;;;;;;;6.95;2.88;;;256.40;2252.80;;;;;;5052234;28;20028;-75
2021/10/09 00:48:35;;;;;;;7.05;2.42;;;256.30;2252.80;;;;;;5071595;28;20044;-75
2021/10/09 00:51:03;;;;;;;3.60;2.20;;;256.40;2252.80;;;;;;5075870;28;20475;-75
2021/10/09 00:53:30;;;;;;;3.53;2.20;;;256.30;2252.80;;;;;;5068605;28;20033;-74
2021/10/09 00:55:57;;;;;;;4.05;2.40;;;256.40;2252.80;;;;;;5075650;28;20500;-75
2021/10/09 00:58:23;;;;;;;4.97;2.97;;;256.30;2252.80;;;;;;5074395;28;20422;-75
2021/10/09 01:00:49;;;;;;;5.05;2.83;;;256.30;2252.80;;;;;;5073801;28;20036;-75
2021/10/09 01:03:15;;;;;;;4.53;2.58;;;256.30;2252.80;;;;;;5058240;28;20024;-74
2021/10/09 01:05:42;;;;;;;7.53;2.78;;;256.20;2252.80;;;;;;5075953;28;20025;-75
2021/10/09 01:08:07;;;;;;;6.68;2.92;;;256.20;2252.80;;;;;;5066494;28;20047;-75
2021/10/09 01:10:34;;;;;;;6.40;2.72;;;256.30;2252.80;;;;;;5074123;28;20475;-74
2021/10/09 01:13:03;;;;;;;4.70;2.42;;;256.40;2252.80;;;;;;5074318;28;20024;-74
2021/10/09 01:15:32;;;;;;;4.28;2.60;;;256.20;2252.80;;;;;;5070294;28;20450;-75
2021/10/09 01:18:06;;;;;;;4.75;2.90;;;256.30;2252.80;;;;;;5079551;28;20086;-75
2021/10/09 01:20:46;;;;;;;4.90;2.42;;;256.30;2252.80;;;;;;5081466;28;20103;-74
2021/10/09 01:23:12;;;;;;;5.00;3.00;;;256.30;2252.80;;;;;;5073726;28;20029;-74
2021/10/09 01:25:38;;;;;;;5.95;3.45;;;256.40;2252.80;;;;;;5074088;28;20498;-74
2021/10/09 01:28:04;;;;;;;8.93;2.92;;;256.30;2252.80;;;;;;5059382;28;20047;-74
2021/10/09 01:30:30;;;;;;;4.40;2.80;;;256.40;2252.80;;;;;;5073954;28;20017;-74
2021/10/09 01:32:55;;;;;;;5.22;2.30;;;256.40;2252.80;;;;;;5080101;28;20515;-74
2021/10/09 01:35:21;;;;;;;4.68;2.65;;;256.40;2252.80;;;;;;5073889;28;20043;-74
2021/10/09 01:37:47;;;;;;;6.10;3.40;;;256.40;2252.80;;;;;;5068062;28;20032;-75
2021/10/09 01:40:13;;;;;;;5.90;2.75;;;256.30;2252.80;;;;;;5073866;28;20091;-75
2021/10/09 01:42:38;;;;;;;4.75;3.05;;;256.30;2252.80;;;;;;5073782;28;20012;-75
2021/10/09 01:45:06;;;;;;;8.10;3.90;;;256.30;2252.80;;;;;;5073532;28;20021;-74
2021/10/09 01:47:31;;;;;;;6.80;3.20;;;256.40;2252.80;;;;;;5073714;28;20028;-76
2021/10/09 01:49:57;;;;;;;4.10;2.42;;;256.40;2252.80;;;;;;5073479;28;20039;-76
2021/10/09 01:52:23;;;;;;;5.40;3.40;;;256.40;2252.80;;;;;;5073678;28;20082;-73
2021/10/09 01:54:49;;;;;;;4.50;2.60;;;256.40;2252.80;;;;;;5073213;28;20028;-74
2021/10/09 01:57:15;;;;;;;7.43;2.90;;;256.30;2252.80;;;;;;5073594;28;20074;-74
2021/10/09 01:59:41;;;;;;;6.78;3.00;;;256.30;2252.80;;;;;;5072785;28;20019;-75
2021/10/09 02:02:07;;;;;;;5.25;2.80;;;256.30;2252.80;;;;;;5073716;28;20762;-75
2021/10/09 02:04:33;;;;;;;7.25;2.88;;;256.20;2252.80;;;;;;5073075;28;20069;-75
2021/10/09 02:06:59;;;;;;;5.03;2.47;;;256.30;2252.80;;;;;;5073350;28;20391;-77
2021/10/09 02:09:25;;;;;;;4.82;2.65;;;256.30;2252.80;;;;;;5072837;28;20016;-75
2021/10/09 02:11:52;;;;;;;4.65;3.03;;;256.20;2252.80;;;;;;5073097;28;20020;-75
2021/10/09 02:14:36;;;;;;;5.13;2.95;;;256.20;2252.80;;;;;;5073312;28;20063;-75
2021/10/09 02:17:22;;;;;;;9.57;2.70;;;256.20;2252.80;;;;;;5054583;28;20407;-74
2021/10/09 02:25:37;;;;;;;7.35;3.65;;;256.30;2252.80;;;;;;5073152;28;20071;-73
2021/10/09 02:28:03;;;;;;;3.97;2.50;;;256.30;2252.80;;;;;;5072708;28;20027;-73
2021/10/09 02:30:29;;;;;;;4.53;3.40;;;256.30;2252.80;;;;;;5072772;28;20024;-74
2021/10/09 02:32:55;;;;;;;8.02;4.32;;;256.30;2252.80;;;;;;5072500;28;20733;-74
2021/10/09 02:35:21;;;;;;;5.57;3.15;;;256.40;2252.80;;;;;;5072789;28;20056;-74
2021/10/09 02:37:47;;;;;;;5.25;2.85;;;256.40;2252.80;;;;;;5072452;28;20027;-74
2021/10/09 02:40:13;;;;;;;4.15;3.03;;;256.40;2252.80;;;;;;5054412;28;20029;-75
2021/10/09 02:42:38;;;;;;;5.82;3.45;;;256.40;2252.80;;;;;;5072983;28;20437;-75
2021/10/09 02:45:05;;;;;;;4.18;3.05;;;256.40;2252.80;;;;;;5072076;28;20050;-74
2021/10/09 02:47:31;;;;;;;5.22;3.45;;;256.30;2252.80;;;;;;5072667;28;20059;-75
2021/10/09 02:49:56;;;;;;;6.28;3.10;;;256.30;2252.80;;;;;;5072229;28;20016;-74
2021/10/09 02:52:22;;;;;;;4.10;2.67;;;256.40;2252.80;;;;;;5082472;28;20430;-75
2021/10/09 02:54:48;;;;;;;4.88;3.40;;;256.30;2252.80;;;;;;5056343;28;20028;-74
2021/10/09 02:57:13;;;;;;;4.88;2.75;;;256.40;2252.80;;;;;;5062487;28;20741;-75
2021/10/09 02:59:39;;;;;;;5.82;3.65;;;256.40;2252.80;;;;;;5072037;28;20028;-75
2021/10/09 03:02:05;;;;;;;6.65;3.60;;;256.40;2252.80;;;;;;5072460;28;20028;-75
2021/10/09 03:04:31;;;;;;;6.88;4.22;;;256.30;2252.80;;;;;;5071863;28;20395;-74
2021/10/09 03:06:57;;;;;;;6.20;3.60;;;256.30;2252.80;;;;;;5058130;28;20024;-74
2021/10/09 03:09:23;;;;;;;3.78;2.78;;;256.30;2252.80;;;;;;5072000;28;20074;-74
2021/10/09 03:11:48;;;;;;;7.10;3.30;;;256.30;2252.80;;;;;;5070816;28;20031;-74
2021/10/09 03:14:14;;;;;;;4.70;3.38;;;256.20;2252.80;;;;;;5072033;28;20438;-74
2021/10/09 03:16:40;;;;;;;6.28;3.15;;;256.30;2252.80;;;;;;5071319;28;20683;-75
2021/10/09 03:19:05;;;;;;;5.65;3.40;;;256.20;2252.80;;;;;;5070382;28;20028;-75
2021/10/09 03:21:31;;;;;;;7.03;3.50;;;256.20;2252.80;;;;;;5071601;28;20104;-75
2021/10/09 03:23:57;;;;;;;7.95;3.35;;;256.30;2252.80;;;;;;5053994;28;20078;-74
2021/10/09 03:26:22;;;;;;;4.28;3.10;;;256.20;2252.80;;;;;;5053594;28;20024;-74
2021/10/09 03:28:48;;;;;;;7.65;3.00;;;256.20;2252.80;;;;;;5071864;28;20104;-75
2021/10/09 03:31:14;;;;;;;6.63;3.70;;;256.20;2252.80;;;;;;5053234;28;20083;-75
2021/10/09 03:33:40;;;;;;;6.35;3.25;;;256.20;2252.80;;;;;;5053955;28;20074;-74
2021/10/09 03:36:06;;;;;;;6.35;3.50;;;256.20;2252.80;;;;;;5071345;28;20021;-74
2021/10/09 03:38:32;;;;;;;4.03;2.92;;;256.20;2252.80;;;;;;5071315;28;20024;-74
2021/10/09 03:41:03;;;;;;;4.75;3.20;;;256.20;2252.80;;;;;;5071463;28;20024;-75
2021/10/09 03:43:29;;;;;;;5.70;4.07;;;256.20;2252.80;;;;;;5063261;28;20028;-74
2021/10/09 03:46:20;;;;;;;3.83;3.00;;;256.20;2252.80;;;;;;5053643;28;20471;-74
2021/10/09 03:53:56;;;;;;;6.07;3.10;;;256.20;2252.80;;;;;;5065761;28;20560;-75
2021/10/09 03:56:22;;;;;;;4.55;3.33;;;256.20;2252.80;;;;;;5070978;28;20051;-74
2021/10/09 03:58:47;;;;;;;6.25;3.65;;;256.20;2252.80;;;;;;5071251;28;20118;-74
2021/10/09 04:01:13;;;;;;;6.70;3.53;;;256.20;2252.80;;;;;;5070769;28;20043;-75
2021/10/09 04:03:39;;;;;;;8.18;3.67;;;256.20;2252.80;;;;;;5052123;28;20025;-74
2021/10/09 04:06:05;;;;;;;4.90;3.30;;;256.30;2252.80;;;;;;5071236;28;20021;-73
2021/10/09 04:08:30;;;;;;;5.28;3.05;;;256.20;2252.80;;;;;;5070916;28;20059;-74
2021/10/09 04:10:56;;;;;;;5.35;3.30;;;256.20;2252.80;;;;;;5069114;28;20147;-73
2021/10/09 04:13:22;;;;;;;8.98;3.67;;;256.20;2252.80;;;;;;5070578;28;20799;-73
2021/10/09 04:15:48;;;;;;;7.03;3.58;;;256.20;2252.80;;;;;;5070450;28;20045;-73
2021/10/09 04:18:13;;;;;;;6.32;3.72;;;256.20;2252.80;;;;;;5070652;28;20020;-73
2021/10/09 04:20:39;;;;;;;6.22;3.80;;;256.10;2252.80;;;;;;5073448;28;20052;-73
2021/10/09 04:23:05;;;;;;;5.05;3.90;;;256.20;2252.80;;;;;;5070486;28;20028;-73
2021/10/09 04:25:31;;;;;;;4.50;3.13;;;256.30;2252.80;;;;;;5071171;28;20031;-73
2021/10/09 04:27:57;;;;;;;5.78;3.97;;;256.30;2252.80;;;;;;5070579;28;20483;-73
2021/10/09 04:30:23;;;;;;;7.43;4.20;;;256.30;2252.80;;;;;;5070791;28;20495;-73
2021/10/09 04:32:48;;;;;;;8.45;4.20;;;256.30;2252.80;;;;;;5070639;28;20091;-73
2021/10/09 04:35:14;;;;;;;5.93;3.60;;;256.30;2252.80;;;;;;5070349;28;20029;-74
2021/10/09 04:37:40;;;;;;;5.90;4.50;;;256.30;2252.80;;;;;;5071074;28;20013;-73
2021/10/09 04:40:06;;;;;;;6.95;4.18;;;256.20;2252.80;;;;;;5052579;28;20032;-73
2021/10/09 04:42:32;;;;;;;5.75;4.00;;;256.20;2252.80;;;;;;5074325;28;20046;-73
2021/10/09 04:44:57;;;;;;;7.55;4.30;;;256.20;2252.80;;;;;;5069961;28;20433;-73
2021/10/09 04:47:23;;;;;;;5.57;3.83;;;256.20;2252.80;;;;;;5070411;28;20029;-73
2021/10/09 04:49:49;;;;;;;7.13;4.43;;;256.20;2252.80;;;;;;5070257;28;20025;-73
2021/10/09 04:52:15;;;;;;;5.93;4.55;;;256.20;2252.80;;;;;;5070689;28;20166;-73
2021/10/09 04:54:40;;;;;;;5.80;4.03;;;256.20;2252.80;;;;;;5070496;28;20820;-73
2021/10/09 04:57:06;;;;;;;6.93;4.38;;;256.20;2252.80;;;;;;5052688;28;20664;-73
2021/10/09 04:59:32;;;;;;;5.75;4.22;;;256.30;2252.80;;;;;;5070177;28;20483;-74
2021/10/09 05:01:57;;;;;;;6.30;4.40;;;256.30;2252.80;;;;;;5070264;28;20029;-74
2021/10/09 05:04:23;;;;;;;6.22;4.45;;;256.30;2252.80;;;;;;5072615;28;20162;-73
2021/10/09 05:06:49;;;;;;;8.30;4.53;;;256.30;2252.80;;;;;;5075483;28;20021;-74
2021/10/09 05:09:14;;;;;;;6.18;4.13;;;256.30;2252.80;;;;;;5070674;28;20510;-73
2021/10/09 05:11:40;;;;;;;6.80;4.07;;;256.30;2252.80;;;;;;5070133;28;20139;-73
2021/10/09 05:14:06;;;;;;;6.00;4.72;;;256.20;2252.80;;;;;;5073856;28;20054;-73
2021/10/09 05:16:32;;;;;;;8.30;4.18;;;256.30;2252.80;;;;;;5069494;28;20407;-74
2021/10/09 05:18:57;;;;;;;5.90;4.10;;;256.30;2252.80;;;;;;5057967;28;20771;-74
2021/10/09 05:21:23;;;;;;;7.80;3.60;;;256.30;2252.80;;;;;;5073694;28;20074;-73
2021/10/09 05:23:49;;;;;;;7.78;4.28;;;256.30;2252.80;;;;;;5071583;28;20367;-73
2021/10/09 05:26:15;;;;;;;7.40;5.30;;;256.30;2252.80;;;;;;5070023;28;20103;-73
2021/10/09 05:28:47;;;;;;;10.75;7.47;;;256.30;2252.80;;;;;;5070872;28;20130;-73
2021/10/09 05:31:31;;;;;;;13.10;8.02;;;256.30;2252.80;;;;;;5071905;28;20032;-74
2021/10/09 05:33:57;;;;;;;8.98;5.35;;;256.30;2252.80;;;;;;5079530;28;20017;-73
2021/10/09 05:36:24;;;;;;;7.13;5.55;;;256.40;2252.80;;;;;;5060616;28;20116;-73
2021/10/09 05:38:51;;;;;;;7.97;5.30;;;256.40;2252.80;;;;;;5072885;28;20107;-73
2021/10/09 05:41:17;;;;;;;6.35;4.60;;;256.40;2252.80;;;;;;5073132;28;20112;-73
2021/10/09 05:43:45;;;;;;;9.18;5.75;;;256.40;2252.80;;;;;;5075580;28;20467;-73
2021/10/09 05:46:11;;;;;;;6.43;4.50;;;256.30;2252.80;;;;;;5051416;28;20441;-73
2021/10/09 05:48:38;;;;;;;7.63;5.28;;;256.30;2252.80;;;;;;5071307;28;20403;-73
2021/10/09 05:51:08;;;;;;;10.30;4.88;;;256.30;2252.80;;;;;;5054574;28;20507;-73
2021/10/09 06:01:22;;;;;;;6.97;5.07;;;256.40;2252.80;;;;;;5076678;28;20104;-73
2021/10/09 06:25:59;;;;;;;7.93;5.10;;;256.50;2252.80;;;;;;5070039;28;20170;-74
2021/10/09 07:01:11;;;;;;;30.10;17.83;;;256.50;2252.80;;;;;;5011115;28;20068;-75
2021/10/09 07:03:37;;;;;;;21.00;14.52;;;256.50;2252.80;;;;;;5009401;28;20057;-74
2021/10/09 07:06:03;;;;;;;14.77;8.65;;;256.50;2252.80;;;;;;5015985;28;20366;-74
2021/10/09 07:08:29;;;;;;;10.85;6.70;;;256.50;2252.80;;;;;;5010066;28;20049;-74
2021/10/09 07:10:56;;;;;;;9.70;6.70;;;256.50;2252.80;;;;;;5010377;28;20097;-73
2021/10/09 07:13:22;;;;;;;10.80;6.65;;;256.50;2252.80;;;;;;5008752;28;20405;-74
2021/10/09 07:15:48;;;;;;;7.32;5.72;;;256.50;2252.80;;;;;;5009723;28;20058;-74
2021/10/09 07:18:14;;;;;;;10.45;6.90;;;256.50;2252.80;;;;;;5017682;28;20073;-74
2021/10/09 07:20:41;;;;;;;29.15;17.65;;;256.50;2252.80;;;;;;5035993;28;20109;-73
2021/10/09 07:23:10;;;;;;;23.48;14.00;;;256.50;2252.80;;;;;;5073875;28;20016;-73
2021/10/09 07:25:37;;;;;;;14.35;9.52;;;256.40;2252.80;;;;;;5075423;28;20027;-73
2021/10/09 07:28:03;;;;;;;10.98;7.38;;;256.60;2252.80;;;;;;5071783;28;20078;-74
2021/10/09 07:30:29;;;;;;;8.68;6.80;;;256.60;2252.80;;;;;;5070896;28;20425;-74
2021/10/09 07:32:55;;;;;;;8.40;6.15;;;256.60;2252.80;;;;;;5071212;28;20543;-74
2021/10/09 07:35:22;;;;;;;7.90;5.50;;;256.60;2252.80;;;;;;5053697;28;20028;-74
2021/10/09 07:37:48;;;;;;;9.80;6.68;;;256.60;2252.80;;;;;;5071583;28;20021;-73
2021/10/09 07:40:14;;;;;;;9.68;6.60;;;256.70;2252.80;;;;;;5072988;28;20035;-73
2021/10/09 07:42:40;;;;;;;7.97;5.43;;;256.80;2252.80;;;;;;5070532;28;20474;-74
2021/10/09 07:45:06;;;;;;;9.50;6.07;;;256.70;2252.80;;;;;;5067492;28;20032;-74
2021/10/09 07:47:32;;;;;;;8.38;5.93;;;256.70;2252.80;;;;;;5068785;28;20035;-73
2021/10/09 07:49:58;;;;;;;8.52;6.80;;;256.80;2252.80;;;;;;5052563;28;20040;-74
2021/10/09 07:52:24;;;;;;;10.38;6.93;;;256.80;2252.80;;;;;;5070779;28;20016;-74
2021/10/09 07:54:49;;;;;;;13.90;6.60;;;256.80;2252.80;;;;;;5072768;28;20509;-74
2021/10/09 07:57:15;;;;;;;13.13;6.85;;;256.80;2252.80;;;;;;5070882;28;20028;-73
2021/10/09 07:59:41;;;;;;;10.88;6.88;;;256.90;2252.80;;;;;;5070562;28;20382;-74
2021/10/09 08:02:07;;;;;;;12.18;7.88;;;256.80;2252.80;;;;;;5070205;28;20033;-73
2021/10/09 08:04:33;;;;;;;12.05;8.25;;;256.90;2252.80;;;;;;5072502;28;20027;-73
2021/10/09 08:06:59;;;;;;;11.50;7.55;;;256.90;2252.80;;;;;;5052472;28;20035;-73
2021/10/09 08:09:27;;;;;;;17.75;12.18;;;256.90;2252.80;;;;;;5069981;28;20020;-74
2021/10/09 08:11:53;;;;;;;16.60;10.80;;;281.60;2278.40;;;;;;5066844;28;20040;-74
2021/10/09 08:14:18;;;;;;;13.95;9.45;;;281.70;2278.40;;;;;;5068593;28;20028;-74
2021/10/09 08:16:44;;;;;;;13.45;9.57;;;281.70;2278.40;;;;;;5067595;28;20052;-73
2021/10/09 08:19:10;;;;;;;16.92;10.18;;;281.60;2278.40;;;;;;5071848;28;20035;-74
2021/10/09 08:21:41;;;;;;;18.85;11.98;;;281.60;2278.40;;;;;;5052733;28;20475;-74
2021/10/09 08:40:05;;;;;;;23.50;16.95;;;282.20;2278.40;;;;;;5069210;28;20059;-73
2021/10/09 08:42:32;;;;;;;19.02;13.55;;;282.20;2278.40;;;;;;5067709;28;20511;-73
2021/10/09 08:44:58;;;;;;;22.88;14.13;;;282.40;2278.40;;;;;;5065206;28;20021;-73
2021/10/09 08:47:23;;;;;;;21.70;15.63;;;282.40;2278.40;;;;;;5068285;28;20766;-73
2021/10/09 08:49:49;;;;;;;15.55;12.05;;;282.50;2278.40;;;;;;5069352;28;20082;-72
2021/10/09 08:52:22;;;;;;;25.23;18.63;;;307.20;2304.00;;;;;;5068304;28;20024;-73
2021/10/09 08:54:49;;;;;;;23.05;15.05;;;307.20;2304.00;;;;;;5066569;28;20455;-72
2021/10/09 08:57:20;;;;;;;16.60;10.82;;;307.40;2304.00;;;;;;5065063;28;20028;-73
2021/10/09 08:59:58;;;;;;;18.13;11.45;;;307.40;2304.00;;;;;;5051356;28;20395;-74
2021/10/09 09:27:21;;;;;;;10.35;7.32;;;307.80;2304.00;;;;;;5071052;28;20044;-70
2021/10/09 09:35:33;;;;;;;12.80;8.15;;;307.80;2304.00;;;;;;5072311;28;20471;-73
2021/10/09 09:40:42;;;;;;;12.73;8.27;;;307.90;2304.00;;;;;;5070357;28;20028;-73
2021/10/09 09:43:09;;;;;;;14.85;8.15;;;307.90;2304.00;;;;;;5069424;28;20070;-71
2021/10/09 09:45:36;;;;;;;12.95;8.20;;;307.90;2304.00;;;;;;5071120;28;20029;-70
2021/10/09 09:48:04;;;;;;;15.85;10.07;;;307.90;2304.00;;;;;;5071661;28;20108;-70
2021/10/09 09:50:31;;;;;;;13.60;9.80;;;308.10;2304.00;;;;;;5070463;28;20078;-71
2021/10/09 09:53:01;;;;;;;13.82;8.85;;;308.10;2304.00;;;;;;5072133;28;20060;-71
2021/10/09 09:55:27;;;;;;;14.50;8.43;;;308.00;2304.00;;;;;;5058387;28;20522;-71
2021/10/09 09:57:53;;;;;;;13.55;9.80;;;308.00;2304.00;;;;;;5072904;28;20021;-70
2021/10/09 10:00:20;;;;;;;11.30;8.73;;;308.00;2304.00;;;;;;5056719;28;20032;-70
2021/10/09 10:02:52;;;;;;;11.88;7.68;;;307.80;2304.00;;;;;;5070728;28;20048;-70
2021/10/09 10:05:21;;;;;;;15.02;8.60;;;307.80;2304.00;;;;;;5071707;28;20098;-70
2021/10/09 10:07:47;;;;;;;11.07;6.90;;;307.90;2304.00;;;;;;5070410;28;20424;-70
2021/10/09 10:10:14;;;;;;;10.07;8.35;;;307.80;2304.00;;;;;;5069869;28;20016;-70
2021/10/09 10:12:41;;;;;;;9.98;6.55;;;307.70;2304.00;;;;;;5068676;28;20027;-71
2021/10/09 10:15:09;;;;;;;12.95;9.10;;;307.50;2304.00;;;;;;5070572;28;20514;-71
2021/10/09 10:17:42;;;;;;;10.23;7.20;;;307.50;2304.00;;;;;;5068370;28;20028;-71
2021/10/09 10:20:19;;;;;;;9.27;6.45;;;307.40;2304.00;;;;;;5066987;28;20029;-71
2021/10/09 10:22:44;;;;;;;10.98;6.13;;;307.40;2304.00;;;;;;5071802;28;20017;-71
2021/10/09 10:25:27;;;;;;;9.27;5.32;;;307.40;2304.00;;;;;;5071597;28;20501;-71
2021/10/09 10:28:02;;;;;;;14.13;6.20;;;307.30;2304.00;;;;;;5069025;28;20021;-73
2021/10/09 10:30:42;;;;;;;7.70;5.05;;;307.20;2304.00;;;;;;5071991;28;20029;-73
2021/10/09 10:33:10;;;;;;;11.52;5.78;;;307.20;2304.00;;;;;;5068304;28;20072;-73
2021/10/09 10:35:35;;;;;;;9.65;5.38;;;307.20;2304.00;;;;;;5072042;28;20028;-73
2021/10/09 10:38:21;;;;;;;10.38;6.90;;;307.20;2304.00;;;;;;5071486;28;20732;-73
2021/10/09 10:40:59;;;;;;;12.35;7.45;;;307.40;2304.00;;;;;;5071239;28;20070;-73
2021/10/09 10:43:44;;;;;;;14.77;10.02;;;307.40;2304.00;;;;;;5069704;28;20021;-73
2021/10/09 10:49:34;;;;;;;10.25;7.85;;;307.40;2304.00;;;;;;5069280;28;20129;-73
2021/10/09 10:57:04;;;;;;;9.43;6.13;;;307.40;2304.00;;;;;;5070533;28;20423;-73
2021/10/09 10:59:55;;;;;;;11.10;5.65;;;307.40;2304.00;;;;;;5070930;28;20020;-73
2021/10/09 11:02:27;;;;;;;10.45;6.90;;;307.40;2304.00;;;;;;5068138;28;20085;-75
2021/10/09 11:04:53;;;;;;;16.88;7.70;;;307.50;2304.00;;;;;;5069982;28;20031;-73
2021/10/09 11:07:40;;;;;;;10.48;7.07;;;307.50;2304.00;;;;;;5069474;28;20364;-73
2021/10/09 11:10:12;;;;;;;14.80;8.68;;;307.60;2304.00;;;;;;5068660;28;20020;-73
2021/10/09 11:12:39;;;;;;;14.75;9.93;;;307.60;2304.00;;;;;;5070735;28;20031;-73
2021/10/09 11:15:20;;;;;;;9.38;6.40;;;307.70;2304.00;;;;;;5047452;28;20029;-73
2021/10/09 11:17:49;;;;;;;10.45;6.18;;;307.50;2304.00;;;;;;5070137;28;20387;-73
2021/10/09 11:20:26;;;;;;;10.50;7.15;;;307.40;2304.00;;;;;;5067091;28;20536;-73
2021/10/09 11:22:53;;;;;;;9.50;6.00;;;307.50;2304.00;;;;;;5069173;28;20495;-73
2021/10/09 11:25:31;;;;;;;11.93;6.65;;;307.40;2304.00;;;;;;5069990;28;20059;-73
2021/10/09 11:28:00;;;;;;;11.27;7.55;;;307.60;2304.00;;;;;;5068751;28;20024;-72
2021/10/09 11:30:26;;;;;;;14.85;6.70;;;307.50;2304.00;;;;;;5065079;28;20993;-72
2021/10/09 11:32:54;;;;;;;11.55;6.90;;;307.40;2304.00;;;;;;5070167;28;20017;-70
2021/10/09 11:35:33;;;;;;;10.90;5.53;;;307.40;2304.00;;;;;;5068578;28;20040;-70
2021/10/09 11:37:59;;;;;;;8.60;6.05;;;307.30;2304.00;;;;;;5065379;28;20472;-71
2021/10/09 11:40:44;;;;;;;13.40;5.82;;;307.30;2304.00;;;;;;5067859;28;20476;-71
2021/10/09 11:43:17;;;;;;;11.15;6.60;;;307.30;2304.00;;;;;;5064817;28;20028;-70
2021/10/09 11:45:51;;;;;;;10.82;5.65;;;307.30;2304.00;;;;;;5067906;28;20032;-70
2021/10/09 11:56:50;;;;;;;8.38;5.85;;;307.30;2304.00;;;;;;4994368;28;20078;-73
2021/10/09 11:59:40;;;;;;;11.25;6.07;;;307.30;2304.00;;;;;;4993598;28;20500;-74
2021/10/09 12:02:07;;;;;;;12.75;6.70;;;307.20;2304.00;;;;;;4969677;28;20421;-72
2021/10/09 12:04:33;;;;;;;8.52;6.22;;;307.20;2304.00;;;;;;4988939;28;20034;-74
2021/10/09 12:07:10;;;;;;;12.85;7.63;;;307.20;2304.00;;;;;;4988995;28;20093;-72
2021/10/09 12:09:35;;;;;;;;;;;307.30;2304.00;;;;;;4973385;28;20030;-73
2021/10/09 12:12:21;;;;;;;13.70;8.53;;;307.40;2304.00;;;;;;4978469;28;19913;-73
2021/10/09 12:14:53;;;;;;;13.38;8.02;;;307.40;2304.00;;;;;;4994545;28;20896;-74
2021/10/09 12:17:21;;;;;;;10.75;7.75;;;307.50;2304.00;;;;;;4992540;28;20402;-73
2021/10/09 12:19:58;;;;;;;12.88;7.75;;;307.40;2304.00;;;;;;4988918;28;20033;-73
2021/10/09 12:22:24;;;;;;;11.95;8.85;;;307.40;2304.00;;;;;;4980902;28;20054;-72
2021/10/09 12:24:52;;;;;;;13.45;8.40;;;307.30;2304.00;;;;;;4981131;28;20037;-73
2021/10/09 12:27:26;;;;;;;13.93;8.85;;;307.30;2304.00;;;;;;4991526;28;20053;-73
2021/10/09 12:30:10;;;;;;;17.77;9.60;;;307.40;2304.00;;;;;;4988594;28;20460;-73
2021/10/09 12:32:41;;;;;;;15.65;9.73;;;307.40;2304.00;;;;;;5007433;28;20039;-73
2021/10/09 12:35:07;;;;;;;13.32;9.68;;;307.40;2304.00;;;;;;5048897;28;20052;-73
2021/10/09 12:37:35;;;;;;;13.52;9.10;;;307.40;2304.00;;;;;;5045157;28;20075;-73
2021/10/09 12:40:17;;;;;;;15.05;9.70;;;307.30;2304.00;;;;;;5065209;28;20387;-74
2021/10/09 12:43:00;;;;;;;15.27;8.07;;;307.30;2304.00;;;;;;5064814;28;20016;-73
2021/10/09 12:45:27;;;;;;;14.45;9.23;;;307.20;2304.00;;;;;;5070537;28;20745;-73
2021/10/09 12:47:58;;;;;;;18.88;9.50;;;307.20;2304.00;;;;;;5072629;28;20041;-73
2021/10/09 12:50:26;;;;;;;19.00;9.32;;;282.40;2278.40;;;;;;5062223;28;20046;-73
2021/10/09 12:52:53;;;;;;;15.73;7.95;;;282.40;2278.40;;;;;;5074249;28;20025;-73
2021/10/09 12:55:21;;;;;;;13.35;8.20;;;282.30;2278.40;;;;;;5062636;28;20028;-73
2021/10/09 12:57:49;;;;;;;12.48;8.68;;;282.30;2278.40;;;;;;5071140;28;20530;-73
2021/10/09 13:00:16;;;;;;;11.30;7.93;;;282.40;2278.40;;;;;;5073722;28;20028;-73
2021/10/09 13:02:42;;;;;;;14.63;8.60;;;282.40;2278.40;;;;;;5072300;28;20013;-73
2021/10/09 13:05:08;;;;;;;15.98;9.30;;;282.40;2278.40;;;;;;5070648;28;20163;-73
2021/10/09 13:07:33;;;;;;;20.30;12.27;;;282.40;2278.40;;;;;;5072975;28;20406;-74
2021/10/09 13:09:59;;;;;;;12.88;10.73;;;282.50;2278.40;;;;;;5073572;28;20031;-73
2021/10/09 13:12:25;;;;;;;16.67;10.82;;;282.50;2278.40;;;;;;5072211;28;20151;-74
2021/10/09 13:14:51;;;;;;;13.25;9.07;;;282.50;2278.40;;;;;;5072910;28;20111;-74
2021/10/09 13:17:16;;;;;;;13.63;9.45;;;282.50;2278.40;;;;;;5072699;28;20700;-72
2021/10/09 13:19:42;;;;;;;17.02;10.68;;;307.20;2304.00;;;;;;5069157;28;20142;-71
2021/10/09 13:22:08;;;;;;;18.13;9.77;;;307.20;2304.00;;;;;;5071436;28;20028;-72
2021/10/09 13:24:34;;;;;;;17.20;10.60;;;307.20;2304.00;;;;;;5070605;28;20769;-72
2021/10/09 13:26:59;;;;;;;13.75;8.30;;;307.20;2304.00;;;;;;5074583;28;20029;-72
2021/10/09 13:29:25;;;;;;;13.75;9.82;;;307.20;2304.00;;;;;;5070397;28;20025;-72
2021/10/09 13:31:51;;;;;;;14.32;9.13;;;307.20;2304.00;;;;;;5070570;28;20095;-71
2021/10/09 13:34:17;;;;;;;17.48;10.70;;;307.20;2304.00;;;;;;5052877;28;20036;-72
2021/10/09 13:36:43;;;;;;;18.17;11.38;;;307.20;2304.00;;;;;;5072980;28;20024;-72
2021/10/09 13:39:09;;;;;;;18.40;11.38;;;307.20;2304.00;;;;;;5073956;28;20048;-72
2021/10/09 13:41:35;;;;;;;17.65;9.65;;;307.20;2304.00;;;;;;5074994;28;20047;-72
2021/10/09 13:44:00;;;;;;;16.83;11.15;;;307.20;2304.00;;;;;;5070823;28;20043;-72
2021/10/09 13:46:31;;;;;;;14.23;8.75;;;307.20;2304.00;;;;;;5065755;28;20052;-71
2021/10/09 13:48:56;;;;;;;13.25;9.35;;;282.50;2278.40;;;;;;5071964;28;20021;-72
2021/10/09 13:51:22;;;;;;;17.13;11.52;;;282.50;2278.40;;;;;;5070732;28;20438;-72
2021/10/09 13:53:48;;;;;;;14.20;10.10;;;282.50;2278.40;;;;;;5072839;28;20429;-72
2021/10/09 13:56:14;;;;;;;15.77;8.43;;;282.40;2278.40;;;;;;5070823;28;20032;-71
2021/10/09 13:58:40;;;;;;;13.23;9.45;;;282.40;2278.40;;;;;;5068132;28;20039;-71
2021/10/09 14:01:06;;;;;;;16.15;9.50;;;282.40;2278.40;;;;;;5066853;28;20027;-72
2021/10/09 14:03:34;;;;;;;18.65;11.05;;;282.40;2278.40;;;;;;5067543;28;20017;-71
2021/10/09 14:06:00;;;;;;;16.40;10.30;;;282.40;2278.40;;;;;;5070654;28;20036;-71
2021/10/09 14:08:27;;;;;;;16.08;10.32;;;282.40;2278.40;;;;;;5070389;28;20687;-71
2021/10/09 14:10:55;;;;;;;16.15;11.25;;;282.30;2278.40;;;;;;5074167;28;20040;-72
2021/10/09 14:13:22;;;;;;;19.08;10.35;;;282.30;2278.40;;;;;;5069888;28;20073;-71
2021/10/09 14:15:49;;;;;;;14.13;9.52;;;282.30;2278.40;;;;;;5070627;28;20048;-72
2021/10/09 14:18:16;;;;;;;18.60;11.95;;;282.30;2278.40;;;;;;5071477;28;20483;-72
2021/10/09 14:20:50;;;;;;;13.05;9.15;;;282.30;2278.40;;;;;;5070005;28;20021;-72
2021/10/09 14:23:16;;;;;;;13.82;10.27;;;282.30;2278.40;;;;;;5072384;28;20114;-72
2021/10/09 14:25:42;;;;;;;15.68;10.93;;;282.30;2278.40;;;;;;5071362;28;20032;-71
2021/10/09 14:28:11;;;;;;;15.23;9.68;;;282.30;2278.40;;;;;;5053557;28;20032;-72
2021/10/09 14:30:39;;;;;;;14.27;9.65;;;282.30;2278.40;;;;;;5070039;28;20113;-73
2021/10/09 14:33:06;;;;;;;13.40;9.43;;;282.20;2278.40;;;;;;5070077;28;20027;-73
2021/10/09 14:35:32;;;;;;;14.75;9.40;;;282.10;2278.40;;;;;;5071757;28;20028;-73
2021/10/09 14:37:58;;;;;;;18.00;10.32;;;282.10;2278.40;;;;;;5054061;28;20021;-74